Time;durP1;ratioP1;P1;durP2;ratioP2;P2;SDS_P1;SDS_P2;PMS_P1;PMS_P2;Temp;Humidity;BMP_temperature;BMP_pressure;BME280_temperature;BME280_humidity;BME280_pressure;Samples;Min_cycle;Max_cycle;Signal;HPM_P1;HPM_P2
2022/08/03 00:09:50;;;;;;;14.1;16;;;;;;;15.5;100;98820;;;;
2022/08/03 00:20:50;;;;;;;14.1;16;;;;;;;15.4;100;98830;;;;
2022/08/03 00:30:50;;;;;;;13.5;15.7;;;;;;;15.3;100;98830;;;;
2022/08/03 00:41:50;;;;;;;13.5;15.7;;;;;;;15.2;100;98830;;;;
2022/08/03 00:52:50;;;;;;;13.5;15.7;;;;;;;15;100;98840;;;;
2022/08/03 01:02:50;;;;;;;13;16.5;;;;;;;15;100;98840;;;;
2022/08/03 01:12:50;;;;;;;13;16.5;;;;;;;15;100;98840;;;;
2022/08/03 01:22:50;;;;;;;13;16.5;;;;;;;15;100;98830;;;;
2022/08/03 01:33:50;;;;;;;15;17.1;;;;;;;15;100;98840;;;;
2022/08/03 01:43:50;;;;;;;15;17.1;;;;;;;14.9;100;98840;;;;
2022/08/03 01:54:50;;;;;;;13.6;15.3;;;;;;;14.7;100;98840;;;;
2022/08/03 02:04:50;;;;;;;13.6;15.3;;;;;;;14.7;100;98830;;;;
2022/08/03 02:14:50;;;;;;;13.6;15.3;;;;;;;14.6;100;98830;;;;
2022/08/03 02:25:50;;;;;;;13.7;15.7;;;;;;;14.5;100;98820;;;;
2022/08/03 02:35:50;;;;;;;13.7;15.7;;;;;;;14.5;100;98820;;;;
2022/08/03 02:45:50;;;;;;;13.7;15.7;;;;;;;14.4;100;98820;;;;
2022/08/03 02:55:50;;;;;;;12.9;14.8;;;;;;;14.3;100;98820;;;;
2022/08/03 03:05:50;;;;;;;12.9;14.8;;;;;;;14.2;100;98820;;;;
2022/08/03 03:15:50;;;;;;;12.9;14.8;;;;;;;14.1;100;98830;;;;
2022/08/03 03:26:50;;;;;;;11.5;13.6;;;;;;;14;100;98830;;;;
2022/08/03 03:37:50;;;;;;;11.5;13.6;;;;;;;13.9;100;98840;;;;
2022/08/03 03:47:50;;;;;;;11.5;13.6;;;;;;;14;100;98840;;;;
2022/08/03 03:58:50;;;;;;;11.6;13.9;;;;;;;14.1;100;98840;;;;
2022/08/03 04:18:50;;;;;;;11.6;13.9;;;;;;;14.8;100;98860;;;;
2022/08/03 04:28:51;;;;;;;11.4;14.2;;;;;;;15.1;100;98870;;;;
2022/08/03 04:39:50;;;;;;;11.4;14.2;;;;;;;15.8;100;98870;;;;
2022/08/03 04:50:50;;;;;;;11.4;14.2;;;;;;;16.3;100;98890;;;;
2022/08/03 05:00:50;;;;;;;15;20.4;;;;;;;16.6;100;98910;;;;
2022/08/03 05:10:51;;;;;;;15;20.4;;;;;;;16.9;100;98910;;;;
2022/08/03 05:20:50;;;;;;;15;20.4;;;;;;;17.3;100;98910;;;;
2022/08/03 05:31:50;;;;;;;11.4;13.5;;;;;;;17.7;100;98920;;;;
2022/08/03 05:41:50;;;;;;;11.4;13.5;;;;;;;18.1;100;98920;;;;
2022/08/03 05:51:51;;;;;;;11.4;13.5;;;;;;;18.5;100;98920;;;;
2022/08/03 06:02:50;;;;;;;12.2;16.9;;;;;;;18.8;100;98920;;;;
2022/08/03 06:12:51;;;;;;;12.2;16.9;;;;;;;19;100;98920;;;;
2022/08/03 06:23:50;;;;;;;13.2;14.7;;;;;;;19.6;100;98930;;;;
2022/08/03 06:33:50;;;;;;;13.2;14.7;;;;;;;19.9;100;98930;;;;
2022/08/03 06:44:50;;;;;;;13.2;14.7;;;;;;;20.7;100;98930;;;;
2022/08/03 06:55:50;;;;;;;17.5;19.8;;;;;;;21.4;100;98940;;;;
2022/08/03 07:05:50;;;;;;;17.5;19.8;;;;;;;21.5;100;98930;;;;
2022/08/03 07:15:50;;;;;;;17.5;19.8;;;;;;;21.8;100;98940;;;;
2022/08/03 07:26:50;;;;;;;13.3;15.5;;;;;;;22.1;100;98940;;;;
2022/08/03 07:37:51;;;;;;;13.3;15.5;;;;;;;22.4;100;98950;;;;
2022/08/03 07:48:51;;;;;;;13.3;15.5;;;;;;;23.1;100;98940;;;;
2022/08/03 07:58:51;;;;;;;10.7;13.8;;;;;;;23.7;100;98940;;;;
2022/08/03 08:09:50;;;;;;;10.7;13.8;;;;;;;24.3;100;98940;;;;
2022/08/03 08:19:50;;;;;;;10.7;13.8;;;;;;;24.4;100;98940;;;;
2022/08/03 08:30:51;;;;;;;10.6;12.8;;;;;;;24;100;98950;;;;
2022/08/03 08:41:50;;;;;;;10.6;12.8;;;;;;;24.1;100;98950;;;;
2022/08/03 08:52:51;;;;;;;10.6;12.8;;;;;;;24.2;100;98940;;;;
2022/08/03 09:03:52;;;;;;;10.9;13.5;;;;;;;24.4;100;98940;;;;
2022/08/03 09:13:51;;;;;;;10.9;13.5;;;;;;;24.5;100;98940;;;;
2022/08/03 09:24:50;;;;;;;11.7;14.2;;;;;;;24.7;100;98930;;;;
2022/08/03 09:35:50;;;;;;;11.7;14.2;;;;;;;25.2;100;98930;;;;
2022/08/03 09:45:51;;;;;;;11.7;14.2;;;;;;;25.5;100;98930;;;;
2022/08/03 09:56:51;;;;;;;8.2;11.7;;;;;;;25.5;100;98930;;;;
2022/08/03 10:07:51;;;;;;;8.2;11.7;;;;;;;25.9;100;98920;;;;
2022/08/03 10:17:50;;;;;;;8.2;11.7;;;;;;;26.3;100;98920;;;;
2022/08/03 10:28:51;;;;;;;6.5;9.5;;;;;;;26.3;100;98920;;;;
2022/08/03 10:38:51;;;;;;;6.5;9.5;;;;;;;26.6;100;98910;;;;
2022/08/03 10:49:51;;;;;;;6.5;9.5;;;;;;;27;100;98910;;;;
2022/08/03 11:00:51;;;;;;;5;7.8;;;;;;;26.6;96.3;98900;;;;
2022/08/03 11:10:51;;;;;;;5;7.8;;;;;;;27;92.1;98900;;;;
2022/08/03 11:21:51;;;;;;;5;7.8;;;;;;;27.8;84.4;98890;;;;
2022/08/03 11:31:51;;;;;;;4.2;8;;;;;;;27.9;81.1;98890;;;;
2022/08/03 11:41:51;;;;;;;4.2;8;;;;;;;27.4;82;98880;;;;
2022/08/03 11:52:51;;;;;;;4.2;8;;;;;;;27.6;84.1;98870;;;;
2022/08/03 12:02:51;;;;;;;3.9;7.7;;;;;;;27.8;83.2;98860;;;;
2022/08/03 12:13:51;;;;;;;3.9;7.7;;;;;;;28;83.3;98850;;;;
2022/08/03 12:23:51;;;;;;;3.9;7.7;;;;;;;28.1;80.7;98850;;;;
2022/08/03 12:33:51;;;;;;;3.9;5.9;;;;;;;28.4;82;98840;;;;
2022/08/03 12:44:53;;;;;;;3.9;5.9;;;;;;;28.4;76.1;98840;;;;
2022/08/03 12:54:51;;;;;;;4.1;6.5;;;;;;;28.4;75.5;98830;;;;
2022/08/03 13:05:51;;;;;;;4.1;6.5;;;;;;;28.1;74;98820;;;;
2022/08/03 13:16:51;;;;;;;4.1;6.5;;;;;;;28.6;76.7;98810;;;;
2022/08/03 13:27:51;;;;;;;3.9;5.9;;;;;;;28.5;75.3;98810;;;;
2022/08/03 13:37:51;;;;;;;3.9;5.9;;;;;;;28.6;70.4;98800;;;;
2022/08/03 13:48:51;;;;;;;3.9;5.9;;;;;;;28.8;69.8;98810;;;;
2022/08/03 13:59:51;;;;;;;4.1;6.1;;;;;;;29.2;69.8;98800;;;;
2022/08/03 14:09:51;;;;;;;4.1;6.1;;;;;;;29.2;70.3;98800;;;;
2022/08/03 14:20:51;;;;;;;4.1;6.1;;;;;;;30;68.9;98790;;;;
2022/08/03 14:30:51;;;;;;;6.7;12.1;;;;;;;29.7;72.5;98780;;;;
2022/08/03 14:40:51;;;;;;;6.7;12.1;;;;;;;30;70.4;98780;;;;
2022/08/03 14:51:51;;;;;;;6.7;12.1;;;;;;;29.9;71.2;98770;;;;
2022/08/03 15:01:51;;;;;;;3.7;6.6;;;;;;;30;70;98770;;;;
2022/08/03 15:12:53;;;;;;;3.7;6.6;;;;;;;30.4;79;98770;;;;
2022/08/03 15:22:51;;;;;;;3.7;6.6;;;;;;;33.7;60.6;98760;;;;
2022/08/03 15:33:51;;;;;;;3.7;6.3;;;;;;;35.6;50.7;98770;;;;
2022/08/03 15:43:51;;;;;;;3.7;6.3;;;;;;;37.5;44.6;98760;;;;
2022/08/03 15:54:51;;;;;;;3.7;6.3;;;;;;;37.7;43.6;98760;;;;
2022/08/03 16:05:51;;;;;;;3.4;7.3;;;;;;;38;42.8;98750;;;;
2022/08/03 16:16:51;;;;;;;3.4;7.3;;;;;;;37;47.2;98730;;;;
2022/08/03 16:26:51;;;;;;;3.6;6.2;;;;;;;33.8;47.4;98720;;;;
2022/08/03 16:36:51;;;;;;;3.6;6.2;;;;;;;32.1;51;98710;;;;
2022/08/03 16:47:51;;;;;;;3.6;6.2;;;;;;;31;54.8;98700;;;;
2022/08/03 16:57:51;;;;;;;3.3;5.6;;;;;;;30.4;56;98710;;;;
2022/08/03 17:08:51;;;;;;;3.3;5.6;;;;;;;29.7;57;98720;;;;
2022/08/03 17:18:51;;;;;;;3.3;5.6;;;;;;;29.2;68.8;98710;;;;
2022/08/03 17:28:51;;;;;;;4.2;6.7;;;;;;;28.4;71.2;98720;;;;
2022/08/03 17:39:51;;;;;;;4.2;6.7;;;;;;;27.3;77.5;98720;;;;
2022/08/03 17:49:51;;;;;;;4.2;6.7;;;;;;;26.2;86.9;98730;;;;
2022/08/03 18:10:51;;;;;;;4.5;6.6;;;;;;;24.7;99.1;98730;;;;
2022/08/03 18:21:51;;;;;;;4.5;6.6;;;;;;;24;100;98740;;;;
2022/08/03 18:31:51;;;;;;;4.3;6.2;;;;;;;23.5;100;98750;;;;
2022/08/03 18:42:51;;;;;;;4.3;6.2;;;;;;;23;100;98770;;;;
2022/08/03 18:52:51;;;;;;;4.3;6.2;;;;;;;22.6;100;98770;;;;
2022/08/03 19:02:51;;;;;;;6.6;9.6;;;;;;;22.2;100;98780;;;;
2022/08/03 19:12:51;;;;;;;6.6;9.6;;;;;;;22;100;98780;;;;
2022/08/03 19:23:51;;;;;;;6.6;9.6;;;;;;;21.6;100;98790;;;;
2022/08/03 19:34:51;;;;;;;8.8;11.4;;;;;;;21.4;100;98790;;;;
2022/08/03 19:44:51;;;;;;;8.8;11.4;;;;;;;21.1;100;98790;;;;
2022/08/03 19:55:51;;;;;;;8.7;15.5;;;;;;;21;100;98800;;;;
2022/08/03 20:06:55;;;;;;;8.7;15.5;;;;;;;20.8;100;98800;;;;
2022/08/03 20:16:51;;;;;;;8.7;15.5;;;;;;;20.6;100;98790;;;;
2022/08/03 20:27:51;;;;;;;10.5;13.4;;;;;;;20.5;100;98780;;;;
2022/08/03 20:38:51;;;;;;;10.5;13.4;;;;;;;20.4;100;98780;;;;
2022/08/03 20:48:51;;;;;;;10.5;13.4;;;;;;;20.1;100;98780;;;;
2022/08/03 20:59:51;;;;;;;9.9;13.7;;;;;;;19.9;100;98780;;;;
2022/08/03 21:10:51;;;;;;;9.9;13.7;;;;;;;19.6;100;98790;;;;
2022/08/03 21:20:51;;;;;;;9.9;13.7;;;;;;;19.4;100;98790;;;;
2022/08/03 21:30:51;;;;;;;10.9;13.7;;;;;;;19.1;100;98800;;;;
2022/08/03 21:41:51;;;;;;;10.9;13.7;;;;;;;18.8;100;98800;;;;
2022/08/03 21:51:51;;;;;;;10.9;13.7;;;;;;;18.6;100;98800;;;;
2022/08/03 22:02:51;;;;;;;12.9;14.5;;;;;;;18.4;100;98810;;;;
2022/08/03 22:12:51;;;;;;;12.9;14.5;;;;;;;18.2;100;98800;;;;
2022/08/03 22:23:52;;;;;;;12.9;14.5;;;;;;;18;100;98800;;;;
2022/08/03 22:33:51;;;;;;;14.2;19.6;;;;;;;17.9;100;98800;;;;
2022/08/03 22:44:51;;;;;;;14.2;19.6;;;;;;;17.7;100;98800;;;;
2022/08/03 22:54:51;;;;;;;14.2;19.6;;;;;;;17.6;100;98800;;;;
2022/08/03 23:05:51;;;;;;;12.9;16.3;;;;;;;17.5;100;98810;;;;
2022/08/03 23:16:51;;;;;;;12.9;16.3;;;;;;;17.3;100;98810;;;;
2022/08/03 23:27:51;;;;;;;13.8;16.1;;;;;;;17.2;100;98790;;;;
2022/08/03 23:37:51;;;;;;;13.8;16.1;;;;;;;17.1;100;98790;;;;
2022/08/03 23:48:51;;;;;;;13.8;16.1;;;;;;;16.9;100;98780;;;;
2022/08/03 23:58:51;;;;;;;13.5;16.4;;;;;;;16.8;100;98780;;;;
